Terminal Aerodrome Forecast
Issued by NWS

Home | Current Version | Previous Version | Text Only | Print | Product List | Glossary On
Versions: 1 2 3 4 5 6 7 8 9 10 11 12 13 14 15 16 17 18 19
000
FTUS41 KBOX 221837 AAD
TAFFMH
TAF AMD
KFMH 221837Z 2219/2318 17006KT P6SM SKC
     FM230000 VRB03KT P6SM SCT050 SCT250
     FM230500 00000KT 3SM BR SCT030
     FM230700 00000KT 2SM BR BKN008
     FM231400 18007KT P6SM SCT008 BKN080
     FM231500 18009KT P6SM SCT120=

USA.gov is the U.S. government's official web portal to all federal, state and local government web resources and services.